Time;durP1;ratioP1;P1;durP2;ratioP2;P2;SDS_P1;SDS_P2;PMS_P1;PMS_P2;Temp;Humidity;BMP_temperature;BMP_pressure;BME280_temperature;BME280_humidity;BME280_pressure;Samples;Min_cycle;Max_cycle;Signal;HPM_P1;HPM_P2
2024/01/11 00:01:25;;;;;;;24.58;12.20;;;;;;;-5.30;73.61;103230.69;5055363;28;20110;-85
2024/01/11 00:03:50;;;;;;;23.10;11.25;;;;;;;-5.31;73.13;103243.50;5055479;28;20035;-85
2024/01/11 00:06:16;;;;;;;26.98;12.25;;;;;;;-5.33;73.94;103235.59;5055987;28;20451;-85
2024/01/11 00:08:41;;;;;;;24.65;11.20;;;;;;;-5.35;74.00;103234.56;5040255;28;20536;-85
2024/01/11 00:11:07;;;;;;;27.17;12.65;;;;;;;-5.35;73.68;103234.56;5051823;28;20361;-85
2024/01/11 00:13:32;;;;;;;27.20;12.57;;;;;;;-5.33;74.07;103237.28;5032489;28;20067;-85
2024/01/11 00:15:57;;;;;;;29.52;11.88;;;;;;;-5.34;74.34;103243.22;5027845;28;20395;-85
2024/01/11 00:18:23;;;;;;;24.52;11.70;;;;;;;-5.34;74.08;103235.47;5024495;28;20126;-85
2024/01/11 00:20:48;;;;;;;27.13;13.90;;;;;;;-5.37;74.33;103236.13;5018134;28;20075;-85
2024/01/11 00:23:14;;;;;;;30.38;12.30;;;;;;;-5.39;74.65;103232.50;5034489;28;20064;-85
2024/01/11 00:25:39;;;;;;;25.35;11.70;;;;;;;-5.37;74.23;103230.06;5054175;28;20337;-85
2024/01/11 00:28:05;;;;;;;21.60;10.63;;;;;;;-5.39;74.38;103227.34;5054132;28;20060;-85
2024/01/11 00:30:30;;;;;;;24.80;12.23;;;;;;;-5.43;74.12;103230.47;5040185;28;20590;-85
2024/01/11 00:32:56;;;;;;;25.23;12.18;;;;;;;-5.42;74.57;103235.75;5050993;28;20093;-85
2024/01/11 00:35:21;;;;;;;24.75;11.57;;;;;;;-5.43;74.74;103236.53;5051474;28;20029;-85
2024/01/11 00:37:47;;;;;;;23.92;12.77;;;;;;;-5.44;74.50;103228.66;5047225;28;20415;-85
2024/01/11 00:40:12;;;;;;;26.08;13.07;;;;;;;-5.46;74.72;103231.13;5050495;28;20087;-85
2024/01/11 00:42:38;;;;;;;26.98;11.82;;;;;;;-5.45;74.53;103230.34;5048919;28;20504;-85
2024/01/11 00:45:04;;;;;;;25.23;12.73;;;;;;;-5.47;74.40;103231.88;5052067;28;20404;-85
2024/01/11 00:47:29;;;;;;;23.73;11.25;;;;;;;-5.47;74.49;103233.56;5050322;28;20186;-85
2024/01/11 00:49:55;;;;;;;24.10;12.00;;;;;;;-5.52;74.77;103230.59;5062235;28;20147;-85
2024/01/11 00:52:21;;;;;;;22.55;11.70;;;;;;;-5.52;74.67;103242.63;5052109;28;20037;-85
2024/01/11 00:54:46;;;;;;;27.70;13.10;;;;;;;-5.53;74.95;103236.56;5050355;28;20025;-85
2024/01/11 00:57:12;;;;;;;23.70;12.43;;;;;;;-5.54;74.92;103229.56;5033755;28;20029;-85
2024/01/11 00:59:39;;;;;;;26.98;13.13;;;;;;;-5.58;74.95;103230.13;5052184;28;20036;-85
2024/01/11 01:02:04;;;;;;;28.23;12.55;;;;;;;-5.60;74.56;103226.50;5066209;28;20089;-85
2024/01/11 01:04:30;;;;;;;24.13;11.57;;;;;;;-5.59;74.45;103229.97;5068464;28;20108;-85
2024/01/11 01:06:55;;;;;;;24.77;12.57;;;;;;;-5.65;74.53;103220.97;5039550;28;20037;-85
2024/01/11 01:09:21;;;;;;;26.40;12.70;;;;;;;-5.67;75.03;103226.78;5037261;28;20553;-85
2024/01/11 01:11:46;;;;;;;28.48;13.85;;;;;;;-5.66;74.58;103238.94;5066597;28;20048;-85
2024/01/11 01:14:12;;;;;;;26.15;11.93;;;;;;;-5.67;75.06;103245.75;5061889;28;20025;-85
2024/01/11 01:16:37;;;;;;;25.90;12.13;;;;;;;-5.72;74.99;103240.97;5033892;28;20049;-85
2024/01/11 01:19:03;;;;;;;29.15;13.20;;;;;;;-5.72;75.30;103247.03;5035710;28;20068;-85
2024/01/11 01:21:28;;;;;;;21.75;11.95;;;;;;;-5.73;75.35;103249.53;5053559;28;20059;-85
2024/01/11 01:23:54;;;;;;;25.98;13.23;;;;;;;-5.74;75.61;103256.34;5036754;28;20305;-85
2024/01/11 01:26:20;;;;;;;25.00;12.32;;;;;;;-5.75;75.69;103258.81;5060074;28;20049;-85
2024/01/11 01:28:45;;;;;;;23.15;11.13;;;;;;;-5.77;75.75;103256.09;5053659;28;20056;-85
2024/01/11 01:31:12;;;;;;;26.20;11.80;;;;;;;-5.80;75.91;103254.94;5037034;28;20033;-85
2024/01/11 01:33:38;;;;;;;24.33;12.10;;;;;;;-5.79;76.22;103261.91;5023175;28;20083;-85
2024/01/11 01:36:03;;;;;;;25.17;12.05;;;;;;;-5.82;76.21;103265.13;5070607;28;20032;-85
2024/01/11 01:38:30;;;;;;;28.10;13.05;;;;;;;-5.83;76.53;103263.34;5057598;28;20075;-85
2024/01/11 01:40:55;;;;;;;28.25;12.80;;;;;;;-5.83;76.78;103273.66;5051974;28;20066;-85
2024/01/11 01:43:21;;;;;;;27.48;12.40;;;;;;;-5.83;76.44;103276.22;5034914;28;20311;-85
2024/01/11 01:45:47;;;;;;;26.45;12.32;;;;;;;-5.83;76.63;103271.06;5060090;28;20172;-85
2024/01/11 01:48:13;;;;;;;26.17;13.15;;;;;;;-5.86;77.38;103273.38;5041031;28;20041;-85
2024/01/11 01:50:38;;;;;;;27.25;13.07;;;;;;;-5.88;77.29;103281.00;5069932;28;20024;-85
2024/01/11 01:53:04;;;;;;;29.15;13.60;;;;;;;-5.90;77.19;103285.13;5052103;28;20033;-85
2024/01/11 01:55:30;;;;;;;28.27;13.27;;;;;;;-5.91;77.05;103285.91;5070213;28;20384;-85
2024/01/11 01:57:57;;;;;;;25.10;12.15;;;;;;;-5.89;77.03;103289.50;5057709;28;20045;-85
2024/01/11 02:00:23;;;;;;;27.45;13.50;;;;;;;-5.93;76.71;103277.13;5040718;28;20037;-85
2024/01/11 02:02:52;;;;;;;30.02;13.23;;;;;;;-5.91;77.08;103283.34;5038737;28;20032;-85
2024/01/11 02:05:18;;;;;;;29.02;13.40;;;;;;;-5.94;76.72;103277.94;5053543;28;20048;-85
2024/01/11 02:07:44;;;;;;;26.30;13.43;;;;;;;-5.95;77.28;103281.28;5068594;28;20051;-85
2024/01/11 02:10:10;;;;;;;25.65;13.18;;;;;;;-6.07;77.37;103257.94;5037331;28;20056;-85
2024/01/11 02:12:39;;;;;;;24.90;12.80;;;;;;;-6.01;77.55;103272.13;5053856;28;20476;-85
2024/01/11 02:15:05;;;;;;;30.77;14.15;;;;;;;-6.12;77.35;103259.22;5050761;28;20472;-85
2024/01/11 02:17:31;;;;;;;25.08;12.05;;;;;;;-6.11;77.07;103263.63;5041272;28;20044;-85
2024/01/11 02:19:56;;;;;;;30.67;13.75;;;;;;;-6.16;76.90;103272.63;5044089;28;20421;-84
2024/01/11 02:22:27;;;;;;;29.55;13.07;;;;;;;-6.17;77.19;103280.25;5004266;28;20047;-85
2024/01/11 02:24:53;;;;;;;29.10;13.15;;;;;;;-6.20;77.33;103277.44;5069041;28;20079;-85
2024/01/11 02:27:18;;;;;;;24.50;12.30;;;;;;;-6.19;78.12;103286.94;5057307;28;20036;-85
2024/01/11 02:29:44;;;;;;;45.95;13.77;;;;;;;-6.22;78.15;103287.59;5072017;28;20047;-85
2024/01/11 02:32:09;;;;;;;29.70;12.98;;;;;;;-6.23;78.04;103282.28;5060718;28;20102;-85
2024/01/11 02:34:35;;;;;;;26.95;12.30;;;;;;;-6.25;78.15;103283.88;5056836;28;20195;-85
2024/01/11 02:37:05;;;;;;;32.22;13.10;;;;;;;-6.28;78.29;103280.25;5056603;28;20045;-85
2024/01/11 02:39:31;;;;;;;26.80;12.63;;;;;;;-6.27;78.61;103284.63;5065556;28;20040;-81
2024/01/11 02:41:58;;;;;;;30.20;13.05;;;;;;;-6.27;78.54;103282.03;5056073;28;20094;-81
2024/01/11 02:44:24;;;;;;;29.17;14.40;;;;;;;-6.27;78.59;103274.31;5054167;28;20322;-81
2024/01/11 02:46:49;;;;;;;28.00;11.82;;;;;;;-6.28;78.11;103277.66;5054936;28;20044;-80
2024/01/11 02:49:15;;;;;;;29.80;13.35;;;;;;;-6.28;78.14;103280.25;5073106;28;20029;-80
2024/01/11 02:51:40;;;;;;;26.40;12.05;;;;;;;-6.33;78.34;103284.13;5062087;28;20476;-80
2024/01/11 02:54:06;;;;;;;25.52;12.65;;;;;;;-6.35;78.64;103283.06;5052563;28;20120;-81
2024/01/11 02:56:32;;;;;;;33.22;13.05;;;;;;;-6.36;78.80;103280.34;5050663;28;20029;-81
2024/01/11 02:58:57;;;;;;;29.75;15.07;;;;;;;-6.38;78.99;103293.13;5057660;28;20455;-81
2024/01/11 03:01:23;;;;;;;32.72;13.10;;;;;;;-6.43;79.29;103283.16;5046051;28;20041;-81
2024/01/11 03:03:48;;;;;;;26.55;13.30;;;;;;;-6.44;79.52;103278.78;5051704;28;20046;-81
2024/01/11 03:06:14;;;;;;;27.27;12.43;;;;;;;-6.44;79.50;103283.94;5063839;28;20140;-80
2024/01/11 03:08:39;;;;;;;31.02;14.15;;;;;;;-6.46;79.70;103277.75;5033912;28;20131;-80
2024/01/11 03:11:05;;;;;;;24.95;11.48;;;;;;;-6.50;79.02;103274.91;5051557;28;20102;-80
2024/01/11 03:13:31;;;;;;;32.97;13.93;;;;;;;-6.49;79.15;103278.41;5053778;28;20032;-81
2024/01/11 03:15:57;;;;;;;28.08;13.10;;;;;;;-6.52;79.12;103278.13;5053794;28;20475;-82
2024/01/11 03:18:23;;;;;;;25.13;12.77;;;;;;;-6.54;79.39;103296.03;5046018;28;20036;-81
2024/01/11 03:20:48;;;;;;;29.67;14.55;;;;;;;-6.56;79.40;103283.78;5055379;28;20036;-81
2024/01/11 03:23:13;;;;;;;32.13;13.45;;;;;;;-6.61;79.60;103283.38;5055832;28;20472;-81
2024/01/11 03:25:39;;;;;;;24.77;12.55;;;;;;;-6.58;79.80;103283.63;5050344;28;20040;-81
2024/01/11 03:28:05;;;;;;;25.17;11.57;;;;;;;-6.60;79.87;103287.78;5056001;28;20045;-80
2024/01/11 03:30:30;;;;;;;26.02;12.32;;;;;;;-6.59;80.43;103278.38;5064488;28;20416;-80
2024/01/11 03:32:55;;;;;;;26.98;13.55;;;;;;;-6.59;80.00;103275.78;5037108;28;20469;-80
2024/01/11 03:35:21;;;;;;;23.65;11.98;;;;;;;-6.56;79.82;103278.63;5044651;28;20052;-80
2024/01/11 03:37:47;;;;;;;26.10;12.05;;;;;;;-6.56;80.17;103278.63;5037808;28;20032;-80
2024/01/11 03:40:12;;;;;;;28.58;12.70;;;;;;;-6.61;80.10;103273.06;5051829;28;20086;-80
2024/01/11 03:42:38;;;;;;;26.13;12.32;;;;;;;-6.65;79.62;103273.59;5066575;28;20491;-80
2024/01/11 03:45:07;;;;;;;25.15;12.98;;;;;;;-6.67;79.89;103272.56;5050872;28;20040;-80
2024/01/11 03:47:32;;;;;;;27.52;11.50;;;;;;;-6.66;79.65;103279.50;5071681;28;20119;-80
2024/01/11 03:49:58;;;;;;;26.83;13.02;;;;;;;-6.75;79.79;103274.47;5070620;28;20107;-80
2024/01/11 03:52:23;;;;;;;28.00;13.63;;;;;;;-6.77;80.15;103282.84;5060866;28;20039;-80
2024/01/11 03:54:48;;;;;;;23.85;12.13;;;;;;;-6.80;80.35;103288.63;5054593;28;20482;-80
2024/01/11 03:57:15;;;;;;;26.92;13.30;;;;;;;-6.80;80.81;103277.38;5058666;28;20084;-80
2024/01/11 03:59:41;;;;;;;25.70;11.27;;;;;;;-6.82;80.84;103276.38;5067621;28;20124;-80
2024/01/11 04:02:07;;;;;;;28.20;12.93;;;;;;;-6.81;80.37;103283.31;5058710;28;20184;-80
2024/01/11 04:04:38;;;;;;;28.20;12.13;;;;;;;-6.83;81.09;103282.28;5063877;28;20561;-85
2024/01/11 04:07:03;;;;;;;;;;;;;;;-6.80;79.82;103290.28;5051944;28;20077;-85
2024/01/11 04:09:29;;;;;;;27.67;12.50;;;;;;;-6.89;80.50;103290.38;5068367;28;19976;-84
2024/01/11 04:11:54;;;;;;;25.77;11.05;;;;;;;-6.89;81.36;103302.38;5034077;28;20132;-85
2024/01/11 04:14:20;;;;;;;21.13;11.73;;;;;;;-6.88;81.88;103309.31;5036511;28;20040;-85
2024/01/11 04:16:45;;;;;;;26.52;12.93;;;;;;;-6.93;82.61;103309.81;5071400;28;20498;-84
2024/01/11 04:19:11;;;;;;;30.67;12.38;;;;;;;-6.90;82.78;103304.00;5049929;28;20025;-84
2024/01/11 04:21:39;;;;;;;28.48;11.13;;;;;;;-6.87;82.81;103303.38;5054966;28;20487;-85
2024/01/11 04:24:06;;;;;;;29.60;12.43;;;;;;;-6.90;82.94;103300.53;5054091;28;20036;-85
2024/01/11 04:26:32;;;;;;;26.58;13.65;;;;;;;-6.87;83.24;103312.03;5035105;28;20032;-85
2024/01/11 04:28:59;;;;;;;26.58;12.43;;;;;;;-6.88;82.89;103305.06;5061319;28;20669;-85
2024/01/11 04:31:26;;;;;;;29.05;13.07;;;;;;;-6.89;83.60;103317.81;5038644;28;20404;-85
2024/01/11 04:33:51;;;;;;;26.08;11.02;;;;;;;-6.96;83.41;103313.78;5029956;28;20051;-85
2024/01/11 04:36:17;;;;;;;24.90;11.40;;;;;;;-6.90;83.67;103323.72;5025053;28;20037;-85
2024/01/11 04:38:42;;;;;;;30.98;12.70;;;;;;;-6.92;83.48;103321.03;5045848;28;20365;-85
2024/01/11 04:41:09;;;;;;;21.75;11.43;;;;;;;-6.93;83.58;103309.81;5038594;28;20043;-85
2024/01/11 04:43:44;;;;;;;26.73;12.05;;;;;;;-6.88;83.25;103315.38;5030914;28;20055;-80
2024/01/11 04:46:17;;;;;;;23.58;11.30;;;;;;;-6.89;82.79;103316.16;5044732;28;20037;-80
2024/01/11 04:48:43;;;;;;;32.03;13.13;;;;;;;-6.91;83.35;103312.53;5036165;28;20029;-80
2024/01/11 04:51:09;;;;;;;26.88;11.38;;;;;;;-6.94;83.23;103323.47;5052101;28;20078;-80
2024/01/11 04:53:42;;;;;;;21.40;11.07;;;;;;;-6.95;82.88;103323.31;5017278;28;20036;-79
2024/01/11 04:56:09;;;;;;;21.83;10.45;;;;;;;-6.95;82.99;103325.88;5037680;28;20365;-79
2024/01/11 04:58:37;;;;;;;23.85;11.73;;;;;;;-6.98;82.67;103336.81;5031722;28;20568;-80
2024/01/11 05:01:04;;;;;;;19.48;10.60;;;;;;;-6.99;82.96;103332.44;5040844;28;20071;-80
2024/01/11 05:03:30;;;;;;;28.98;11.18;;;;;;;-7.01;82.69;103333.09;5044567;28;20457;-80
2024/01/11 05:05:55;;;;;;;27.15;11.68;;;;;;;-7.03;83.42;103326.88;5046537;28;20033;-79
2024/01/11 05:08:21;;;;;;;26.65;12.55;;;;;;;-7.02;83.37;103338.97;5013734;28;20692;-80
2024/01/11 05:10:47;;;;;;;22.13;11.07;;;;;;;-7.03;83.43;103342.34;5030922;28;20052;-79
2024/01/11 05:13:17;;;;;;;28.08;12.02;;;;;;;-7.05;83.52;103347.34;5049938;28;20041;-76
2024/01/11 05:15:42;;;;;;;30.63;12.87;;;;;;;-7.07;83.36;103343.75;5035591;28;20032;-76
2024/01/11 05:18:08;;;;;;;27.92;11.73;;;;;;;-7.08;83.84;103341.94;5049518;28;20112;-75
2024/01/11 05:20:33;;;;;;;22.83;12.18;;;;;;;-7.09;84.00;103347.84;5043319;28;20071;-76
2024/01/11 05:23:00;;;;;;;18.73;11.00;;;;;;;-7.11;83.88;103345.91;5044015;28;20100;-74
2024/01/11 05:25:35;;;;;;;24.13;11.75;;;;;;;-7.13;84.12;103358.63;5020978;28;20044;-76
2024/01/11 05:28:01;;;;;;;27.65;12.30;;;;;;;-7.17;84.56;103352.31;5052928;28;20495;-76
2024/01/11 05:30:27;;;;;;;23.17;11.07;;;;;;;-7.17;84.54;103360.03;5088095;28;20020;-76
2024/01/11 05:32:53;;;;;;;22.13;11.15;;;;;;;-7.16;84.64;103368.66;5085015;28;20047;-76
2024/01/11 05:35:19;;;;;;;22.35;11.63;;;;;;;-7.16;85.04;103369.56;5093612;28;20446;-76
2024/01/11 05:37:44;;;;;;;23.88;10.93;;;;;;;-7.18;85.36;103372.78;5083659;28;20036;-76
2024/01/11 05:40:10;;;;;;;25.67;10.68;;;;;;;-7.19;85.40;103365.81;5081632;28;20082;-76
2024/01/11 05:42:37;;;;;;;25.75;11.55;;;;;;;-7.19;85.92;103366.72;5088163;28;20032;-76
2024/01/11 05:45:04;;;;;;;27.83;12.35;;;;;;;-7.17;86.21;103357.47;5084497;28;20376;-76
2024/01/11 05:47:29;;;;;;;19.85;10.60;;;;;;;-7.18;85.87;103353.06;5090256;28;20043;-76
2024/01/11 05:49:55;;;;;;;23.45;11.48;;;;;;;-7.15;85.21;103355.91;5092451;28;20036;-76
2024/01/11 05:52:20;;;;;;;21.15;10.63;;;;;;;-7.16;85.44;103353.22;5093506;28;20059;-76
2024/01/11 05:54:49;;;;;;;22.10;11.18;;;;;;;-7.17;85.63;103356.53;5089610;28;20070;-76
2024/01/11 05:57:16;;;;;;;23.38;10.95;;;;;;;-7.18;85.24;103360.78;5059657;28;20110;-76
2024/01/11 05:59:45;;;;;;;24.10;10.43;;;;;;;-7.18;84.98;103371.09;5091371;28;20455;-76
2024/01/11 06:02:11;;;;;;;21.52;11.07;;;;;;;-7.20;85.08;103379.44;5090299;28;20032;-76
2024/01/11 06:04:37;;;;;;;20.92;11.27;;;;;;;-7.21;85.53;103388.84;5075307;28;20097;-76
2024/01/11 06:07:03;;;;;;;23.25;11.23;;;;;;;-7.25;85.48;103389.31;5046174;28;20048;-76
2024/01/11 06:09:29;;;;;;;22.40;11.13;;;;;;;-7.26;85.88;103381.47;5068366;28;20044;-75
2024/01/11 06:11:54;;;;;;;22.98;10.85;;;;;;;-7.24;85.61;103392.81;5059286;28;20041;-76
2024/01/11 06:14:20;;;;;;;25.20;12.55;;;;;;;-7.24;85.69;103386.00;5060434;28;20028;-76
2024/01/11 06:16:45;;;;;;;26.48;11.55;;;;;;;-7.24;85.64;103374.81;5093591;28;20128;-76
2024/01/11 06:19:11;;;;;;;25.88;11.23;;;;;;;-7.24;85.57;103375.69;5078788;28;20036;-76
2024/01/11 06:21:36;;;;;;;22.50;10.73;;;;;;;-7.25;84.96;103383.28;5060275;28;20459;-76
2024/01/11 06:24:03;;;;;;;18.08;9.73;;;;;;;-7.28;85.24;103386.47;5060715;28;20036;-76
2024/01/11 06:26:29;;;;;;;22.38;11.10;;;;;;;-7.28;85.15;103386.47;5079735;28;20385;-76
2024/01/11 06:28:54;;;;;;;20.35;9.77;;;;;;;-7.30;85.45;103384.53;5087119;28;20048;-76
2024/01/11 06:31:20;;;;;;;23.50;11.57;;;;;;;-7.33;85.09;103380.00;5064003;28;20086;-76
2024/01/11 06:33:45;;;;;;;21.35;11.77;;;;;;;-7.29;85.19;103374.38;5079748;28;20047;-76
2024/01/11 06:36:11;;;;;;;24.83;10.93;;;;;;;-7.25;85.48;103388.44;5077618;28;20387;-76
2024/01/11 06:38:36;;;;;;;21.45;10.38;;;;;;;-7.25;85.56;103389.31;5075976;28;20475;-76
2024/01/11 06:41:02;;;;;;;17.17;9.63;;;;;;;-7.28;85.47;103394.19;5079677;28;20134;-76
2024/01/11 06:43:27;;;;;;;18.67;10.52;;;;;;;-7.35;84.82;103399.53;5076379;28;20436;-76
2024/01/11 06:45:53;;;;;;;24.75;10.48;;;;;;;-7.39;85.08;103403.53;5068543;28;20032;-75
2024/01/11 06:48:18;;;;;;;22.35;10.88;;;;;;;-7.41;85.20;103391.28;5087072;28;20153;-76
2024/01/11 06:50:44;;;;;;;20.98;11.50;;;;;;;-7.47;85.42;103399.31;5078929;28;20034;-76
2024/01/11 06:53:09;;;;;;;22.70;9.50;;;;;;;-7.48;85.18;103412.97;5092615;28;20040;-75
2024/01/11 06:55:34;;;;;;;24.40;10.93;;;;;;;-7.52;85.22;103409.97;5055653;28;20399;-75
2024/01/11 06:58:01;;;;;;;21.00;10.57;;;;;;;-7.54;85.95;103411.47;5067791;28;20093;-76
2024/01/11 07:00:27;;;;;;;20.40;10.52;;;;;;;-7.55;85.53;103407.13;5078603;28;20024;-75
2024/01/11 07:02:53;;;;;;;25.17;9.65;;;;;;;-7.57;85.32;103422.41;5077111;28;20037;-75
2024/01/11 07:05:19;;;;;;;18.90;9.15;;;;;;;-7.60;85.49;103430.75;5083721;28;20105;-75
2024/01/11 07:07:45;;;;;;;22.08;10.10;;;;;;;-7.66;85.48;103430.19;5068561;28;20039;-75
2024/01/11 07:10:10;;;;;;;22.42;9.65;;;;;;;-7.66;85.51;103447.28;5087157;28;20040;-76
2024/01/11 07:12:37;;;;;;;23.58;10.63;;;;;;;-7.70;86.21;103448.66;5089260;28;20034;-76
2024/01/11 07:15:04;;;;;;;23.80;11.10;;;;;;;-7.71;86.82;103445.97;5088797;28;20063;-75
2024/01/11 07:17:30;;;;;;;24.92;10.80;;;;;;;-7.68;87.34;103449.72;5055570;28;20041;-76
2024/01/11 07:19:55;;;;;;;17.92;10.35;;;;;;;-7.66;87.42;103440.47;5055549;28;20040;-76
2024/01/11 07:22:21;;;;;;;23.67;11.10;;;;;;;-7.65;87.84;103436.22;5084971;28;20052;-76
2024/01/11 07:24:46;;;;;;;22.90;11.43;;;;;;;-7.65;88.16;103438.81;5067585;28;20046;-76
2024/01/11 07:27:12;;;;;;;19.08;10.93;;;;;;;-7.66;88.89;103443.03;5091276;28;20028;-76
2024/01/11 07:29:38;;;;;;;24.30;12.23;;;;;;;-7.61;88.64;103453.78;5062022;28;20127;-76
2024/01/11 07:32:04;;;;;;;23.52;11.13;;;;;;;-7.58;88.50;103446.34;5078901;28;20104;-76
2024/01/11 07:34:29;;;;;;;27.08;11.40;;;;;;;-7.58;89.04;103444.66;5053889;28;20044;-75
2024/01/11 07:36:56;;;;;;;25.40;11.25;;;;;;;-7.60;88.75;103442.72;5072541;28;20051;-75
2024/01/11 07:39:24;;;;;;;22.42;10.95;;;;;;;-7.55;88.95;103436.31;5070992;28;20070;-75
2024/01/11 07:41:50;;;;;;;22.90;11.98;;;;;;;-7.57;88.93;103435.25;5082809;28;20044;-75
2024/01/11 07:44:15;;;;;;;20.05;10.15;;;;;;;-7.55;89.07;103438.00;5057479;28;20071;-75
2024/01/11 07:46:43;;;;;;;21.05;11.80;;;;;;;-7.54;89.58;103448.44;5082442;28;20040;-75
2024/01/11 07:49:08;;;;;;;28.20;11.60;;;;;;;-7.52;89.42;103448.56;5053860;28;20054;-75
2024/01/11 07:51:37;;;;;;;18.95;10.07;;;;;;;-7.52;89.53;103440.84;5072027;28;20040;-75
2024/01/11 07:54:02;;;;;;;24.02;11.68;;;;;;;-7.55;89.96;103441.47;5086288;28;20492;-75
2024/01/11 07:56:28;;;;;;;26.55;12.60;;;;;;;-7.53;89.84;103442.53;5056133;28;20165;-76
2024/01/11 07:58:54;;;;;;;30.52;13.55;;;;;;;-7.49;89.83;103430.81;5082967;28;20047;-75
2024/01/11 08:01:19;;;;;;;22.40;12.70;;;;;;;-7.47;89.81;103427.63;5050186;28;20119;-75
2024/01/11 08:03:45;;;;;;;21.58;12.63;;;;;;;-7.44;90.44;103427.94;5074951;28;20039;-75
2024/01/11 08:06:11;;;;;;;26.15;12.70;;;;;;;-7.41;90.48;103420.50;5055841;28;20501;-76
2024/01/11 08:08:40;;;;;;;26.75;12.65;;;;;;;-7.38;90.61;103417.28;5064147;28;20513;-76
2024/01/11 08:11:10;;;;;;;29.02;14.32;;;;;;;-7.33;90.55;103417.72;5077856;28;20045;-76
2024/01/11 08:13:37;;;;;;;25.95;13.20;;;;;;;-7.30;90.95;103416.31;5061352;28;20048;-76
2024/01/11 08:16:04;;;;;;;21.05;10.82;;;;;;;-7.28;90.33;103404.50;5089351;28;20484;-76
2024/01/11 08:18:33;;;;;;;27.30;12.80;;;;;;;-7.24;90.36;103409.19;5081088;28;20044;-76
2024/01/11 08:20:58;;;;;;;23.52;12.02;;;;;;;-7.20;90.41;103407.78;5057760;28;20082;-76
2024/01/11 08:23:24;;;;;;;24.08;12.48;;;;;;;-7.16;90.64;103409.88;5054900;28;20033;-76
2024/01/11 08:25:49;;;;;;;25.88;11.20;;;;;;;-7.14;90.23;103424.69;5091588;28;20044;-76
2024/01/11 08:28:15;;;;;;;23.05;10.70;;;;;;;-7.07;90.43;103435.53;5055119;28;20059;-76
2024/01/11 08:30:42;;;;;;;23.85;12.73;;;;;;;-7.03;90.73;103429.91;5061080;28;20082;-76
2024/01/11 08:33:08;;;;;;;31.05;13.82;;;;;;;-6.98;90.74;103437.28;5066025;28;20056;-75
2024/01/11 08:35:33;;;;;;;30.27;14.20;;;;;;;-6.91;91.18;103420.72;5061745;28;20036;-76
2024/01/11 08:37:59;;;;;;;26.33;14.55;;;;;;;-6.87;90.96;103415.09;5090167;28;20165;-76
2024/01/11 08:40:25;;;;;;;22.80;12.25;;;;;;;-6.80;91.37;103424.25;5090797;28;20043;-76
2024/01/11 08:42:50;;;;;;;28.42;13.40;;;;;;;-6.76;91.28;103414.38;5090936;28;20043;-76
2024/01/11 08:45:17;;;;;;;23.38;13.23;;;;;;;-6.66;91.08;103415.19;5071847;28;20472;-76
2024/01/11 08:47:46;;;;;;;23.17;12.90;;;;;;;-6.61;91.21;103425.13;5071034;28;20028;-76
2024/01/11 08:50:15;;;;;;;21.88;12.45;;;;;;;-6.53;91.54;103436.13;5074377;28;20058;-76
2024/01/11 08:52:42;;;;;;;22.13;12.07;;;;;;;-6.47;91.37;103436.69;5053010;28;20032;-76
2024/01/11 08:55:08;;;;;;;24.35;13.70;;;;;;;-6.41;91.52;103437.22;5071119;28;20080;-76
2024/01/11 08:57:37;;;;;;;25.73;14.18;;;;;;;-6.37;91.54;103430.69;5053105;28;20081;-75
2024/01/11 09:00:06;;;;;;;26.75;13.68;;;;;;;-6.30;91.50;103440.78;5066333;28;20241;-75
2024/01/11 09:02:31;;;;;;;25.92;12.75;;;;;;;-6.25;91.44;103436.91;5070962;28;20047;-75
2024/01/11 09:04:57;;;;;;;30.15;14.30;;;;;;;-6.18;91.72;103438.34;5070912;28;20456;-74
2024/01/11 09:07:25;;;;;;;27.00;13.27;;;;;;;-6.14;91.67;103446.47;5070563;28;20032;-74
2024/01/11 09:09:50;;;;;;;32.10;13.85;;;;;;;-6.09;91.79;103436.56;5070812;28;20391;-74
2024/01/11 09:12:16;;;;;;;31.20;15.95;;;;;;;-6.00;91.55;103445.13;5070477;28;20047;-74
2024/01/11 09:14:42;;;;;;;26.98;14.00;;;;;;;-5.91;91.60;103447.53;5063194;28;20077;-74
2024/01/11 09:17:08;;;;;;;29.02;13.93;;;;;;;-5.84;91.37;103452.47;5076341;28;20037;-74
2024/01/11 09:19:33;;;;;;;24.73;13.82;;;;;;;-5.77;91.38;103452.22;5070550;28;20119;-74
2024/01/11 09:21:59;;;;;;;25.20;13.73;;;;;;;-5.71;91.17;103457.00;5052782;28;20136;-74
2024/01/11 09:24:25;;;;;;;23.70;13.00;;;;;;;-5.66;90.87;103466.97;5070363;28;20059;-74
2024/01/11 09:26:51;;;;;;;25.77;13.10;;;;;;;-5.64;90.96;103462.88;5070706;28;20040;-74
2024/01/11 09:29:16;;;;;;;28.35;14.30;;;;;;;-5.56;91.29;103472.91;5066422;28;20044;-74
2024/01/11 09:31:42;;;;;;;29.73;15.55;;;;;;;-5.52;91.08;103472.41;5070633;28;20072;-74
2024/01/11 09:34:07;;;;;;;30.38;15.15;;;;;;;-5.47;91.17;103482.34;5071064;28;20037;-74
2024/01/11 09:36:33;;;;;;;28.38;13.30;;;;;;;-5.40;91.22;103483.78;5052256;28;20052;-74
2024/01/11 09:38:59;;;;;;;25.65;14.65;;;;;;;-5.33;91.14;103485.22;5070234;28;20040;-74
2024/01/11 09:41:25;;;;;;;28.38;14.07;;;;;;;-5.28;91.13;103487.41;5052214;28;20427;-75
2024/01/11 09:43:54;;;;;;;32.15;15.82;;;;;;;-5.23;91.12;103496.47;5070262;28;20220;-74
2024/01/11 09:46:20;;;;;;;26.75;15.27;;;;;;;-5.18;91.14;103497.75;5063122;28;20101;-74
2024/01/11 09:48:47;;;;;;;36.72;16.08;;;;;;;-5.09;90.91;103500.22;5067454;28;20037;-75
2024/01/11 09:51:13;;;;;;;26.10;14.25;;;;;;;-5.04;90.62;103496.34;5070529;28;20163;-75
2024/01/11 09:53:40;;;;;;;36.55;14.77;;;;;;;-4.97;90.43;103495.16;5070088;28;20592;-75
2024/01/11 09:56:10;;;;;;;30.70;16.77;;;;;;;-4.93;89.84;103494.66;5070138;28;20045;-75
2024/01/11 09:58:36;;;;;;;28.33;16.40;;;;;;;-4.84;89.77;103503.19;5071397;28;20099;-75
2024/01/11 10:01:03;;;;;;;33.67;17.65;;;;;;;-4.79;89.44;103501.00;5075216;28;20017;-76
2024/01/11 10:03:29;;;;;;;33.08;17.90;;;;;;;-4.75;89.38;103495.28;5070010;28;20037;-76
2024/01/11 10:05:57;;;;;;;30.42;15.55;;;;;;;-4.65;88.99;103507.28;5051712;28;20533;-76
2024/01/11 10:08:23;;;;;;;32.17;15.10;;;;;;;-4.59;88.46;103498.38;5051770;28;20040;-76
2024/01/11 10:10:49;;;;;;;32.55;16.95;;;;;;;-4.51;88.47;103499.00;5070332;28;20034;-76
2024/01/11 10:13:16;;;;;;;31.67;17.05;;;;;;;-4.41;88.41;103506.72;5064232;28;20061;-76
2024/01/11 10:15:42;;;;;;;32.75;17.60;;;;;;;-4.36;88.29;103505.41;5078006;28;20036;-77
2024/01/11 10:18:08;;;;;;;33.85;17.80;;;;;;;-4.25;88.07;103503.72;5074025;28;20040;-77
2024/01/11 10:20:34;;;;;;;33.65;16.98;;;;;;;-4.16;87.35;103508.72;5050358;28;20121;-77
2024/01/11 10:23:01;;;;;;;30.77;15.98;;;;;;;-4.08;86.46;103514.50;5056413;28;20096;-76
2024/01/11 10:25:26;;;;;;;33.25;17.45;;;;;;;-4.04;86.60;103520.06;5055760;28;20391;-77
2024/01/11 10:27:52;;;;;;;38.92;18.88;;;;;;;-3.98;86.64;103512.81;5037791;28;20032;-76
2024/01/11 10:30:19;;;;;;;31.48;17.17;;;;;;;-3.87;85.96;103518.81;5073515;28;20060;-77
2024/01/11 10:32:46;;;;;;;42.03;18.55;;;;;;;-3.82;85.38;103516.59;5045446;28;20403;-78
2024/01/11 10:35:11;;;;;;;31.48;16.35;;;;;;;-3.74;85.41;103518.13;5047693;28;20046;-78
2024/01/11 10:37:40;;;;;;;34.67;16.55;;;;;;;-3.68;85.42;103519.50;5060048;28;20044;-78
2024/01/11 10:40:17;;;;;;;34.85;17.90;;;;;;;-3.59;84.62;103513.25;5073090;28;20435;-78
2024/01/11 10:42:46;;;;;;;34.75;18.10;;;;;;;-3.54;84.56;103512.81;5080775;28;20047;-78
2024/01/11 10:45:16;;;;;;;35.58;18.17;;;;;;;-3.46;83.94;103514.34;5062181;28;20067;-78
2024/01/11 10:47:56;;;;;;;34.13;18.03;;;;;;;-3.42;82.77;103507.69;5086483;28;20043;-77
2024/01/11 10:50:23;;;;;;;30.67;17.13;;;;;;;-3.34;83.24;103514.41;5072900;28;20112;-78
2024/01/11 10:53:04;;;;;;;33.63;16.42;;;;;;;-3.26;82.86;103502.91;5056644;28;20048;-78
2024/01/11 10:55:34;;;;;;;35.83;18.00;;;;;;;-3.16;82.42;103496.75;5067619;28;20031;-77
2024/01/11 10:58:01;;;;;;;35.35;17.67;;;;;;;-3.07;82.52;103496.53;5066200;28;20517;-78
2024/01/11 11:00:28;;;;;;;30.08;15.63;;;;;;;-3.04;81.31;103497.69;5068946;28;20032;-77
2024/01/11 11:02:55;;;;;;;30.05;16.88;;;;;;;-2.95;80.91;103515.63;5055589;28;20115;-77
2024/01/11 11:05:22;;;;;;;34.78;17.80;;;;;;;-2.91;79.69;103512.50;5054204;28;20124;-78